createdAt,value
2017-12-27T00:01:28.505Z,81.5
2017-12-27T00:11:32.108Z,74.0
2017-12-27T00:21:31.835Z,80.6
2017-12-27T00:31:28.043Z,77.6
2017-12-27T00:41:27.971Z,76.5
2017-12-27T00:51:29.382Z,82.7
2017-12-27T01:01:26.361Z,80.6
2017-12-27T01:11:27.736Z,77.0
2017-12-27T01:21:32.124Z,75.8
2017-12-27T01:31:31.767Z,75.6
2017-12-27T01:41:31.405Z,74.8
2017-12-27T01:51:35.200Z,74.6
2017-12-27T02:01:26.501Z,72.8
2017-12-27T02:11:32.031Z,74.0
2017-12-27T02:21:28.285Z,77.2
2017-12-27T02:31:32.835Z,72.7
2017-12-27T02:41:32.521Z,73.1
2017-12-27T02:51:32.552Z,72.8
2017-12-27T03:01:32.545Z,73.3
2017-12-27T03:11:32.738Z,71.2
2017-12-27T03:21:53.289Z,70.5
2017-12-27T03:31:25.816Z,73.1
2017-12-27T03:41:31.801Z,70.8
2017-12-27T03:51:28.113Z,70.8
2017-12-27T04:01:33.005Z,71.4
2017-12-27T04:11:29.137Z,69.3
2017-12-27T04:21:31.739Z,66.7
2017-12-27T04:32:03.774Z,65.6
2017-12-27T04:41:28.440Z,74.5
2017-12-27T04:51:26.742Z,69.7
2017-12-27T05:01:32.082Z,69.2
2017-12-27T05:11:31.517Z,71.6
2017-12-27T05:21:47.713Z,72.6
2017-12-27T05:31:26.590Z,72.3
2017-12-27T05:41:48.703Z,79.8
2017-12-27T05:51:31.482Z,81.0
2017-12-27T06:01:29.323Z,82.8
2017-12-27T06:11:31.726Z,78.4
2017-12-27T06:21:29.841Z,76.9
2017-12-27T06:31:27.152Z,66.3
2017-12-27T06:41:32.332Z,60.8
2017-12-27T06:51:31.520Z,61.0
2017-12-27T07:01:31.454Z,56.3
2017-12-27T07:11:31.105Z,55.3
2017-12-27T07:21:31.225Z,57.6
2017-12-27T07:31:32.377Z,71.2
2017-12-27T07:41:30.001Z,69.7
2017-12-27T07:51:28.440Z,67.9
2017-12-27T08:01:29.682Z,64.3
2017-12-27T08:11:26.116Z,66.4
2017-12-27T08:21:26.089Z,66.3
2017-12-27T08:31:32.380Z,58.9
2017-12-27T08:41:32.332Z,56.0
2017-12-27T08:51:30.978Z,50.4
2017-12-27T09:01:31.746Z,48.8
2017-12-27T09:11:34.997Z,58.2
2017-12-27T09:21:32.692Z,53.3
2017-12-27T09:31:34.209Z,42.1
2017-12-27T09:41:29.172Z,35.1
2017-12-27T09:51:26.647Z,36.5
2017-12-27T10:01:26.383Z,32.3
2017-12-27T10:11:31.493Z,27.4
2017-12-27T10:21:32.344Z,28.0
2017-12-27T10:31:28.437Z,25.2
2017-12-27T10:41:32.078Z,22.6
2017-12-27T10:51:32.389Z,26.5
2017-12-27T11:01:26.728Z,21.5
2017-12-27T11:11:30.058Z,15.6
2017-12-27T11:21:33.148Z,8.4
2017-12-27T11:31:31.752Z,6.0
2017-12-27T11:41:32.574Z,8.9
2017-12-27T11:51:27.541Z,8.9
2017-12-27T12:01:32.115Z,10.3
2017-12-27T12:11:28.306Z,11.1
2017-12-27T12:21:28.413Z,11.2
2017-12-27T12:31:27.137Z,10.7
2017-12-27T12:41:29.129Z,17.0
2017-12-27T12:51:28.506Z,20.3
2017-12-27T13:01:28.962Z,19.2
2017-12-27T13:11:26.641Z,16.7
2017-12-27T13:21:27.168Z,14.0
2017-12-27T13:31:31.927Z,11.9
2017-12-27T13:41:27.442Z,4.3
2017-12-27T13:51:26.737Z,3.2
2017-12-27T14:01:29.267Z,3.5
2017-12-27T14:11:28.448Z,4.2
2017-12-27T14:21:32.987Z,5.6
2017-12-27T14:31:27.656Z,3.6
2017-12-27T14:41:31.702Z,2.6
2017-12-27T14:51:26.440Z,3.2
2017-12-27T15:01:26.435Z,9.3
2017-12-27T15:11:33.555Z,8.0
2017-12-27T15:21:31.136Z,7.8
2017-12-27T15:31:36.322Z,10.7
2017-12-27T15:41:31.926Z,8.7
2017-12-27T15:51:26.382Z,8.7
2017-12-27T16:01:32.074Z,21.8
2017-12-27T16:11:39.905Z,25.4
2017-12-27T16:21:32.294Z,24.5
2017-12-27T16:31:26.354Z,21.8
2017-12-27T16:41:34.366Z,21.7
2017-12-27T16:51:32.757Z,23.7
2017-12-27T17:01:31.866Z,23.1
2017-12-27T17:11:28.231Z,21.4
2017-12-27T17:22:18.561Z,22.4
2017-12-27T17:31:33.615Z,21.1
2017-12-27T17:41:32.167Z,22.6
2017-12-27T17:51:29.788Z,19.5
2017-12-27T18:01:32.397Z,18.3
2017-12-27T18:11:32.086Z,15.6
2017-12-27T18:21:31.908Z,15.3
2017-12-27T18:31:33.076Z,17.8
2017-12-27T18:41:32.460Z,23.7
2017-12-27T18:51:31.861Z,24.4
2017-12-27T19:01:31.967Z,32.5
2017-12-27T19:11:34.375Z,35.1
2017-12-27T19:21:26.667Z,31.1
2017-12-27T19:31:29.337Z,30.7
2017-12-27T19:41:29.598Z,30.6
2017-12-27T19:51:30.321Z,29.6
2017-12-27T20:01:27.177Z,32.9
2017-12-27T20:11:31.980Z,34.9
2017-12-27T20:21:32.024Z,31.0
2017-12-27T20:31:26.180Z,30.3
2017-12-27T20:41:29.626Z,26.3
2017-12-27T20:51:31.893Z,25.8
2017-12-27T21:01:30.763Z,25.4
2017-12-27T21:11:36.387Z,24.7
2017-12-27T21:21:44.974Z,20.4
2017-12-27T21:31:32.059Z,19.7
2017-12-27T21:41:26.754Z,20.2
2017-12-27T21:51:32.159Z,19.5
2017-12-27T22:01:36.095Z,23.0
2017-12-27T22:11:32.964Z,19.0
2017-12-27T22:21:32.536Z,17.4
2017-12-27T22:31:28.241Z,16.3
2017-12-27T22:41:32.262Z,15.2
2017-12-27T22:51:35.713Z,17.8
2017-12-27T23:01:26.323Z,18.5
2017-12-27T23:11:27.741Z,17.4
2017-12-27T23:21:32.033Z,16.9
2017-12-27T23:31:32.856Z,17.0
2017-12-27T23:41:31.950Z,18.8
2017-12-27T23:51:32.287Z,17.0
